Time;durP1;ratioP1;P1;durP2;ratioP2;P2;SDS_P1;SDS_P2;PMS_P1;PMS_P2;Temp;Humidity;BMP_temperature;BMP_pressure;BME280_temperature;BME280_humidity;BME280_pressure;Samples;Min_cycle;Max_cycle;Signal;HPM_P1;HPM_P2
2022/11/21 00:00:00;;;;;;;2.58;0.45;;;;;;;14.87;100.00;100544.59;10213527;28;97453;-85
2022/11/21 00:05:04;;;;;;;1.23;0.40;;;;;;;14.86;100.00;100546.38;10214293;28;96772;-86
2022/11/21 00:10:08;;;;;;;4.32;0.90;;;;;;;14.89;100.00;100553.31;10213881;28;96637;-85
2022/11/21 00:15:13;;;;;;;2.67;0.70;;;;;;;14.91;100.00;100551.47;10213597;28;96734;-85
2022/11/21 00:20:16;;;;;;;;;;;;;;;14.84;100.00;100534.22;10213704;28;96736;-85
2022/11/21 00:25:20;;;;;;;4.45;1.13;;;;;;;14.83;100.00;100537.78;10213873;28;96856;-85
2022/11/21 00:30:24;;;;;;;3.88;0.98;;;;;;;14.85;100.00;100541.19;10212566;28;96860;-87
2022/11/21 00:35:28;;;;;;;5.43;1.20;;;;;;;14.88;100.00;100535.78;10211956;28;96820;-86
2022/11/21 00:40:32;;;;;;;;;;;;;;;14.79;100.00;100488.84;10213650;28;96827;-85
2022/11/21 00:45:39;;;;;;;4.78;1.17;;;;;;;14.84;100.00;100513.19;10212894;28;96669;-87
2022/11/21 00:50:42;;;;;;;5.47;1.02;;;;;;;14.87;100.00;100507.75;10242250;28;96851;-87
2022/11/21 00:55:45;;;;;;;7.95;1.40;;;;;;;14.83;100.00;100498.28;10246863;28;96672;-88
2022/11/21 01:00:50;;;;;;;3.97;1.17;;;;;;;14.78;100.00;100502.91;10211344;28;96707;-85
2022/11/21 01:05:53;;;;;;;;;;;;;;;14.74;100.00;100495.13;10212166;28;96771;-86
2022/11/21 01:10:56;;;;;;;8.60;1.48;;;;;;;14.80;100.00;100485.25;10212415;28;97116;-86
2022/11/21 01:16:05;;;;;;;6.00;1.45;;;;;;;14.84;100.00;100481.56;10212244;28;96763;-85
2022/11/21 01:21:13;;;;;;;3.53;1.10;;;;;;;14.83;100.00;100485.97;10211563;28;96686;-88
2022/11/21 01:26:19;;;;;;;6.28;1.20;;;;;;;14.83;100.00;100479.84;10210215;28;96704;-86
2022/11/21 01:31:25;;;;;;;6.63;1.50;;;;;;;14.82;100.00;100478.13;10211223;28;96998;-85
2022/11/21 01:36:30;;;;;;;6.55;1.50;;;;;;;14.74;100.00;100481.97;10211248;28;96696;-86
2022/11/21 01:41:36;;;;;;;5.95;1.08;;;;;;;14.70;100.00;100498.00;10211095;28;96782;-85
2022/11/21 01:46:40;;;;;;;6.35;1.33;;;;;;;14.59;100.00;100487.94;10215633;28;96757;-87
2022/11/21 01:51:48;;;;;;;5.82;1.45;;;;;;;14.60;100.00;100473.88;10250962;28;96808;-86
2022/11/21 01:56:57;;;;;;;7.75;1.52;;;;;;;14.61;100.00;100478.22;10250815;28;96724;-85
2022/11/21 02:02:03;;;;;;;7.47;1.55;;;;;;;14.64;100.00;100490.38;10251783;28;96769;-85
2022/11/21 02:07:07;;;;;;;8.20;1.70;;;;;;;14.68;100.00;100490.19;10218061;28;96717;-85
2022/11/21 02:12:13;;;;;;;;;;;;;;;14.61;100.00;100486.13;10210694;28;96707;-88
2022/11/21 02:17:19;;;;;;;5.80;1.52;;;;;;;14.62;100.00;100466.75;10209474;28;97084;-86
2022/11/21 02:22:33;;;;;;;5.35;1.67;;;;;;;14.63;100.00;100446.56;10216282;28;96814;-86
2022/11/21 02:27:39;;;;;;;5.45;1.45;;;;;;;14.66;100.00;100439.38;10216118;28;96928;-87
2022/11/21 02:32:45;;;;;;;10.32;2.00;;;;;;;14.67;100.00;100433.19;10216715;28;96728;-84
2022/11/21 02:37:58;;;;;;;9.02;1.77;;;;;;;14.72;100.00;100419.81;10217017;28;96798;-86
2022/11/21 02:43:08;;;;;;;6.38;1.58;;;;;;;14.67;100.00;100412.13;10216445;28;96727;-85
2022/11/21 02:48:12;;;;;;;5.50;1.20;;;;;;;14.60;100.00;100404.59;10234082;28;96863;-86
2022/11/21 02:53:18;;;;;;;5.60;1.60;;;;;;;14.58;100.00;100401.19;10257384;28;96987;-86
2022/11/21 02:58:22;;;;;;;6.53;1.63;;;;;;;14.51;100.00;100411.13;10221367;28;96762;-86
2022/11/21 03:03:26;;;;;;;7.78;1.65;;;;;;;14.55;100.00;100420.59;10215899;28;96746;-87
2022/11/21 03:08:29;;;;;;;8.75;1.85;;;;;;;14.52;100.00;100425.97;10214261;28;96711;-87
2022/11/21 03:13:36;;;;;;;9.97;1.57;;;;;;;14.53;100.00;100407.50;10216272;28;96779;-87
2022/11/21 03:18:39;;;;;;;8.98;1.85;;;;;;;14.60;100.00;100397.53;10214728;28;96563;-85
2022/11/21 03:23:44;;;;;;;9.07;2.00;;;;;;;14.60;100.00;100388.81;10215013;28;96756;-86
2022/11/21 03:28:51;;;;;;;11.23;2.10;;;;;;;14.58;100.00;100373.09;10215203;28;96782;-86
2022/11/21 03:33:55;;;;;;;5.93;1.80;;;;;;;14.60;100.00;100376.50;10215030;28;96764;-86
2022/11/21 03:38:59;;;;;;;6.27;1.67;;;;;;;14.59;100.00;100356.34;10214694;28;96692;-86
2022/11/21 03:44:07;;;;;;;11.20;2.03;;;;;;;14.65;100.00;100356.06;10215374;28;96764;-87
2022/11/21 03:49:11;;;;;;;8.70;1.90;;;;;;;14.65;100.00;100344.72;10240219;28;96820;-87
2022/11/21 03:54:15;;;;;;;6.87;1.90;;;;;;;14.63;100.00;100328.97;10254398;28;96959;-86
2022/11/21 03:59:19;;;;;;;10.73;2.60;;;;;;;14.59;100.00;100306.34;10253521;28;96652;-87
2022/11/21 04:04:22;;;;;;;8.18;1.27;;;;;;;14.55;100.00;100303.00;10235228;28;96823;-86
2022/11/21 04:09:25;;;;;;;10.73;2.05;;;;;;;14.52;100.00;100291.78;10213922;28;96730;-87
2022/11/21 04:14:30;;;;;;;7.28;1.38;;;;;;;14.53;100.00;100275.94;10213442;28;96626;-86
2022/11/21 04:19:35;;;;;;;5.63;1.13;;;;;;;14.53;100.00;100272.47;10213856;28;96787;-86
2022/11/21 04:24:38;;;;;;;7.53;1.10;;;;;;;14.50;100.00;100277.84;10213164;28;96668;-85
2022/11/21 04:29:45;;;;;;;6.30;0.90;;;;;;;14.47;100.00;100267.47;10212459;28;96880;-87
2022/11/21 04:34:49;;;;;;;4.93;1.20;;;;;;;14.50;100.00;100255.03;10213329;28;96757;-86
2022/11/21 04:39:52;;;;;;;6.20;1.30;;;;;;;14.53;100.00;100249.63;10213156;28;97219;-86
2022/11/21 04:44:56;;;;;;;5.32;1.00;;;;;;;14.55;100.00;100239.88;10211921;28;96848;-86
2022/11/21 04:49:59;;;;;;;5.30;1.10;;;;;;;14.51;100.00;100237.47;10211233;28;96662;-86
2022/11/21 04:55:03;;;;;;;3.85;0.98;;;;;;;14.53;100.00;100225.94;10229150;28;96784;-87
2022/11/21 05:00:09;;;;;;;5.23;1.10;;;;;;;14.50;100.00;100223.44;10253026;28;97421;-87
2022/11/21 05:05:13;;;;;;;2.63;0.88;;;;;;;14.47;100.00;100222.75;10252833;28;96745;-87
2022/11/21 05:10:16;;;;;;;5.35;1.00;;;;;;;14.49;100.00;100210.41;10251589;28;96785;-88
2022/11/21 05:15:23;;;;;;;3.95;0.70;;;;;;;14.50;100.00;100227.88;10251791;28;96553;-86
2022/11/21 05:20:27;;;;;;;3.05;0.90;;;;;;;14.48;100.00;100211.31;10251935;28;96692;-85
2022/11/21 05:25:30;;;;;;;4.15;0.68;;;;;;;14.50;100.00;100205.03;10252444;28;96842;-86
2022/11/21 05:30:36;;;;;;;3.47;0.70;;;;;;;14.51;100.00;100201.47;10250183;28;97044;-86
2022/11/21 05:35:39;;;;;;;2.58;0.63;;;;;;;14.56;100.00;100190.75;10251153;28;96830;-86
2022/11/21 05:40:45;;;;;;;4.55;1.00;;;;;;;14.58;100.00;100201.19;10250271;28;97013;-86
2022/11/21 05:45:50;;;;;;;4.40;1.10;;;;;;;14.60;100.00;100192.28;10242467;28;96808;-86
2022/11/21 05:50:53;;;;;;;2.70;0.70;;;;;;;14.60;100.00;100178.28;10251063;28;96724;-87
2022/11/21 05:55:57;;;;;;;2.72;0.77;;;;;;;14.62;100.00;100198.31;10254969;28;96858;-88
2022/11/21 06:01:01;;;;;;;6.28;1.00;;;;;;;14.66;100.00;100194.63;10257093;28;96656;-84
2022/11/21 06:06:06;;;;;;;1.90;0.80;;;;;;;14.67;100.00;100179.66;10217252;28;96826;-86
2022/11/21 06:11:12;;;;;;;5.05;0.55;;;;;;;14.73;100.00;100142.50;10217091;28;96828;-85
2022/11/21 06:16:20;;;;;;;3.55;0.73;;;;;;;14.73;100.00;100119.69;10218124;28;96919;-86
2022/11/21 06:21:27;;;;;;;0.80;0.45;;;;;;;14.75;100.00;100136.25;10217226;28;96741;-86
2022/11/21 06:26:30;;;;;;;0.98;0.50;;;;;;;14.78;100.00;100139.63;10217634;28;96595;-85
2022/11/21 06:31:36;;;;;;;1.33;0.50;;;;;;;14.78;100.00;100139.63;10215545;28;97048;-85
2022/11/21 06:36:39;;;;;;;2.75;0.52;;;;;;;14.80;100.00;100101.78;10216968;28;96653;-85
2022/11/21 06:41:49;;;;;;;2.45;0.65;;;;;;;14.81;100.00;100069.25;10216484;28;96651;-86
2022/11/21 06:46:55;;;;;;;2.28;0.38;;;;;;;14.84;100.00;100079.63;10239984;28;97143;-86
2022/11/21 06:51:58;;;;;;;1.23;0.40;;;;;;;14.86;100.00;100106.72;10256361;28;98588;-87
2022/11/21 06:57:02;;;;;;;1.92;0.40;;;;;;;14.95;100.00;100092.22;10255796;28;96669;-86
2022/11/21 07:02:06;;;;;;;2.35;0.60;;;;;;;14.97;100.00;100073.72;10256464;28;96774;-86
2022/11/21 07:07:10;;;;;;;;;;;;;;;14.91;100.00;100059.09;10256813;28;97108;-86
2022/11/21 07:17:35;;;;;;;3.25;0.35;;;;;;;14.97;100.00;100055.28;10255274;28;96895;-86
2022/11/21 07:22:40;;;;;;;1.27;0.40;;;;;;;14.97;100.00;100056.13;10254750;28;96706;-86
2022/11/21 07:27:43;;;;;;;3.00;0.73;;;;;;;14.96;100.00;100107.09;10254234;28;96837;-85
2022/11/21 07:32:48;;;;;;;1.00;0.65;;;;;;;14.97;100.00;100116.69;10255255;28;96743;-85
2022/11/21 07:37:52;;;;;;;4.90;1.38;;;;;;;14.97;100.00;100140.38;10255064;28;96537;-86
2022/11/21 07:43:01;;;;;;;4.25;1.25;;;;;;;14.98;100.00;100141.25;10254674;28;96758;-86
2022/11/21 07:48:15;;;;;;;4.55;1.13;;;;;;;14.98;100.00;100117.56;10214141;28;96805;-86
2022/11/21 07:53:19;;;;;;;6.65;1.63;;;;;;;14.84;100.00;100149.88;10214071;28;96845;-87
2022/11/21 07:58:22;;;;;;;4.63;1.52;;;;;;;14.78;100.00;100171.22;10214993;28;96591;-85
2022/11/21 08:03:29;;;;;;;6.30;1.60;;;;;;;14.81;100.00;100205.31;10214630;28;97065;-85
2022/11/21 08:08:33;;;;;;;8.98;1.88;;;;;;;14.80;100.00;100228.16;10213516;28;96850;-85
2022/11/21 08:13:36;;;;;;;8.80;2.50;;;;;;;14.77;100.00;100249.34;10212517;28;97055;-85
2022/11/21 08:18:40;;;;;;;15.80;3.55;;;;;;;14.73;100.00;100253.03;10212620;28;96941;-86
2022/11/21 08:23:44;;;;;;;17.50;3.80;;;;;;;14.78;100.00;100260.72;10213265;28;96677;-86
2022/11/21 08:28:47;;;;;;;20.33;4.35;;;;;;;14.79;100.00;100263.28;10212400;28;96781;-84
2022/11/21 08:33:55;;;;;;;21.92;4.10;;;;;;;14.73;100.00;100287.25;10212908;28;96807;-84
2022/11/21 08:38:59;;;;;;;25.75;4.32;;;;;;;14.74;100.00;100271.41;10252639;28;96790;-84
2022/11/21 08:44:02;;;;;;;20.75;5.40;;;;;;;14.75;100.00;100283.66;10252774;28;96809;-85
2022/11/21 08:49:07;;;;;;;27.35;5.35;;;;;;;14.74;100.00;100267.94;10253338;28;96719;-85
2022/11/21 08:54:11;;;;;;;29.13;6.10;;;;;;;14.77;100.00;100259.03;10226813;28;96641;-86
2022/11/21 08:59:14;;;;;;;29.40;5.80;;;;;;;14.75;100.00;100325.75;10211713;28;96954;-85
2022/11/21 09:04:19;;;;;;;14.63;2.97;;;;;;;14.58;100.00;100323.09;10210705;28;96809;-85
2022/11/21 09:09:23;;;;;;;17.90;3.70;;;;;;;14.53;100.00;100356.66;10212132;28;96749;-83
2022/11/21 09:19:50;;;;;;;18.75;4.10;;;;;;;14.25;100.00;100326.34;10211760;28;96875;-85
2022/11/21 09:24:54;;;;;;;16.75;3.63;;;;;;;14.21;100.00;100256.41;10211090;28;97455;-84
2022/11/21 09:29:57;;;;;;;11.13;3.05;;;;;;;14.10;100.00;100284.97;10211522;28;96993;-84
2022/11/21 09:35:01;;;;;;;12.63;2.85;;;;;;;14.00;100.00;100250.34;10210627;28;97140;-85
2022/11/21 09:40:06;;;;;;;13.77;3.60;;;;;;;13.89;100.00;100289.44;10211665;28;96649;-84
2022/11/21 09:45:14;;;;;;;13.00;3.03;;;;;;;13.91;100.00;100291.06;10228859;28;97004;-85
2022/11/21 09:50:27;;;;;;;13.63;3.00;;;;;;;14.00;100.00;100231.94;10251361;28;96861;-84
2022/11/21 09:55:41;;;;;;;14.25;3.80;;;;;;;14.03;100.00;100216.03;10249819;28;96760;-84
2022/11/21 10:00:44;;;;;;;12.00;3.20;;;;;;;14.06;100.00;100215.03;10236660;28;96768;-84
2022/11/21 10:05:54;;;;;;;11.07;3.15;;;;;;;14.07;100.00;100212.34;10210411;28;97021;-83
2022/11/21 10:11:06;;;;;;;14.77;3.45;;;;;;;14.11;100.00;100197.28;10210223;28;96701;-85
2022/11/21 10:16:31;;;;;;;14.43;3.95;;;;;;;14.19;100.00;100180.22;10210743;28;97526;-84
2022/11/21 10:22:19;;;;;;;11.70;3.08;;;;;;;14.24;100.00;100158.91;10210106;28;96796;-83
2022/11/21 10:27:31;;;;;;;12.60;3.65;;;;;;;14.25;100.00;100173.78;10209459;28;96777;-83
2022/11/21 10:32:39;;;;;;;15.85;3.10;;;;;;;14.31;100.00;100168.25;10210565;28;96674;-84
2022/11/21 10:37:48;;;;;;;9.82;2.78;;;;;;;14.28;100.00;100173.66;10210011;28;97031;-83
2022/11/21 10:42:56;;;;;;;13.25;3.65;;;;;;;14.25;100.00;100131.72;10221808;28;96838;-84
2022/11/21 10:47:59;;;;;;;12.98;3.47;;;;;;;14.01;100.00;100181.06;10255814;28;97111;-85
2022/11/21 10:58:43;;;;;;;13.32;3.97;;;;;;;14.16;100.00;100184.75;10215741;28;96800;-84
2022/11/21 11:03:46;;;;;;;13.80;3.50;;;;;;;14.21;100.00;100161.72;10216177;28;96990;-84
2022/11/21 11:09:22;;;;;;;16.67;3.60;;;;;;;14.21;100.00;100176.63;10215867;28;96772;-84
2022/11/21 11:14:31;;;;;;;16.75;3.75;;;;;;;14.23;100.00;100166.88;10215299;28;96857;-85
2022/11/21 11:19:34;;;;;;;19.40;4.50;;;;;;;14.22;100.00;100157.31;10215308;28;97101;-85
2022/11/21 11:24:52;;;;;;;22.08;5.38;;;;;;;14.24;100.00;100187.84;10216387;28;96954;-84
2022/11/21 11:30:07;;;;;;;23.75;5.45;;;;;;;14.17;100.00;100163.63;10214295;28;96859;-84
2022/11/21 11:35:22;;;;;;;22.70;5.60;;;;;;;14.18;100.00;100177.66;10214933;28;96731;-84
2022/11/21 11:40:31;;;;;;;24.83;5.75;;;;;;;14.12;100.00;100193.69;10213947;28;96852;-85
2022/11/21 11:51:26;;;;;;;24.98;5.90;;;;;;;14.55;100.00;100196.91;10214455;28;96563;-85
2022/11/21 11:56:35;;;;;;;20.70;6.35;;;;;;;14.71;100.00;100186.47;10214346;28;97087;-85
2022/11/21 12:01:43;;;;;;;21.85;5.03;;;;;;;14.83;100.00;100185.00;10214153;28;96785;-84
2022/11/21 12:06:51;;;;;;;28.50;5.75;;;;;;;15.00;100.00;100178.88;10213852;28;97311;-84
2022/11/21 12:12:26;;;;;;;22.90;6.07;;;;;;;15.11;100.00;100140.53;10214111;28;96891;-83
2022/11/21 12:17:35;;;;;;;22.30;5.75;;;;;;;15.28;100.00;100107.16;10214580;28;96761;-84
2022/11/21 12:22:38;;;;;;;23.63;5.50;;;;;;;15.38;100.00;100087.28;10213189;28;96744;-83
2022/11/21 12:27:47;;;;;;;23.92;5.57;;;;;;;15.45;100.00;100070.22;10212856;28;96823;-84
2022/11/21 12:32:56;;;;;;;19.88;4.72;;;;;;;15.62;100.00;100069.31;10212694;28;97772;-84
2022/11/21 12:38:21;;;;;;;22.33;5.03;;;;;;;15.56;100.00;100052.94;10212921;28;96889;-84
2022/11/21 12:43:35;;;;;;;20.60;5.18;;;;;;;15.55;100.00;100040.69;10232180;28;96633;-84
2022/11/21 12:54:32;;;;;;;22.27;5.13;;;;;;;15.49;100.00;100040.13;10245240;28;96726;-84
2022/11/21 12:59:58;;;;;;;20.00;4.90;;;;;;;15.64;100.00;100012.09;10251975;28;97530;-84
2022/11/21 13:05:06;;;;;;;23.75;5.28;;;;;;;15.69;100.00;100017.09;10252033;28;97017;-84
2022/11/21 13:10:14;;;;;;;22.60;5.00;;;;;;;15.48;100.00;99991.00;10219029;28;96804;-84
2022/11/21 13:15:26;;;;;;;25.60;5.63;;;;;;;15.24;100.00;99997.66;10211771;28;96769;-84
2022/11/21 13:20:33;;;;;;;23.10;5.40;;;;;;;15.06;100.00;99991.59;10211547;28;96674;-86
2022/11/21 13:25:46;;;;;;;21.00;5.53;;;;;;;15.47;100.00;99986.66;10211144;28;97259;-84
2022/11/21 13:30:52;;;;;;;19.33;4.68;;;;;;;15.55;100.00;99957.25;10211306;28;96854;-84
2022/11/21 13:35:56;;;;;;;20.48;4.82;;;;;;;14.94;100.00;100148.47;10211253;28;96688;-84
2022/11/21 13:46:52;;;;;;;7.50;2.03;;;;;;;14.03;100.00;100170.50;10211096;28;96674;-85
2022/11/21 13:51:58;;;;;;;7.28;1.83;;;;;;;13.89;100.00;100160.63;10210294;28;96833;-84
2022/11/21 13:57:12;;;;;;;6.70;1.52;;;;;;;13.86;100.00;100172.13;10211098;28;96771;-84
2022/11/21 14:02:39;;;;;;;5.82;1.55;;;;;;;13.83;100.00;100177.53;10210951;28;96652;-85
2022/11/21 14:07:47;;;;;;;4.35;1.30;;;;;;;13.79;100.00;100175.97;10210735;28;96701;-85
2022/11/21 14:12:52;;;;;;;6.25;1.30;;;;;;;13.82;100.00;100183.72;10210119;28;96754;-84
2022/11/21 14:17:57;;;;;;;4.57;1.48;;;;;;;13.89;100.00;100185.13;10245924;28;96734;-85
2022/11/21 14:23:05;;;;;;;7.15;1.20;;;;;;;13.99;100.00;100140.88;10257516;28;96791;-84
2022/11/21 14:28:13;;;;;;;4.63;1.38;;;;;;;14.14;100.00;100153.28;10256864;28;96818;-85
2022/11/21 14:33:32;;;;;;;5.65;1.17;;;;;;;14.12;100.00;100168.28;10256218;28;96818;-83
2022/11/21 14:38:43;;;;;;;7.50;1.30;;;;;;;13.95;100.00;100176.97;10255229;28;96797;-83
2022/11/21 14:43:47;;;;;;;8.93;2.03;;;;;;;13.59;100.00;100183.00;10256415;28;97868;-85
2022/11/21 14:48:51;;;;;;;10.25;2.35;;;;;;;13.35;100.00;100195.47;10249445;28;97740;-84
2022/11/21 14:53:56;;;;;;;9.87;2.50;;;;;;;13.30;100.00;100213.19;10217218;28;97109;-85
2022/11/21 14:59:02;;;;;;;7.15;2.17;;;;;;;13.35;100.00;100198.09;10216318;28;96816;-84
2022/11/21 15:04:08;;;;;;;9.88;2.20;;;;;;;13.43;100.00;100216.16;10215746;28;96712;-83
2022/11/21 15:09:13;;;;;;;11.35;2.38;;;;;;;13.42;100.00;100225.78;10214976;28;96812;-83
2022/11/21 15:14:39;;;;;;;12.38;2.38;;;;;;;13.36;100.00;100235.69;10214910;28;97589;-84
2022/11/21 15:19:43;;;;;;;10.55;2.58;;;;;;;13.24;100.00;100248.47;10215637;28;96761;-83
2022/11/21 15:24:48;;;;;;;11.52;2.92;;;;;;;13.19;100.00;100246.97;10215596;28;98434;-84
2022/11/21 15:30:06;;;;;;;9.80;2.20;;;;;;;13.13;100.00;100239.31;10213773;28;96953;-84
2022/11/21 15:35:29;;;;;;;9.80;2.10;;;;;;;13.10;100.00;100223.69;10214986;28;97158;-83
2022/11/21 15:40:35;;;;;;;10.60;2.38;;;;;;;13.15;100.00;100238.34;10215090;28;96852;-84
2022/11/21 15:45:38;;;;;;;13.65;2.30;;;;;;;13.08;100.00;100236.88;10215127;28;96721;-85
2022/11/21 15:50:41;;;;;;;11.93;2.58;;;;;;;13.05;100.00;100232.63;10214735;28;97121;-85
2022/11/21 15:55:46;;;;;;;11.20;2.78;;;;;;;12.96;100.00;100247.91;10254343;28;97096;-84
2022/11/21 16:00:49;;;;;;;15.95;3.45;;;;;;;12.94;100.00;100234.00;10214049;28;96628;-85
2022/11/21 16:05:53;;;;;;;10.65;2.15;;;;;;;12.98;100.00;100244.31;10213865;28;96796;-85
2022/11/21 16:10:57;;;;;;;9.98;2.58;;;;;;;13.04;100.00;100245.81;10213515;28;96605;-85
2022/11/21 16:16:02;;;;;;;10.55;2.67;;;;;;;12.99;100.00;100255.66;10214376;28;96733;-85
2022/11/21 16:21:06;;;;;;;;;;;;;;;12.78;100.00;100234.59;10213817;28;96779;-84
2022/11/21 16:26:12;;;;;;;10.90;2.53;;;;;;;12.76;100.00;100244.31;10213500;28;97060;-84
2022/11/21 16:31:19;;;;;;;13.20;2.72;;;;;;;12.64;100.00;100248.28;10213247;28;97338;-84
2022/11/21 16:36:23;;;;;;;11.73;2.25;;;;;;;12.64;100.00;100257.94;10213572;28;96726;-84
2022/11/21 16:41:28;;;;;;;11.13;2.80;;;;;;;12.69;100.00;100250.75;10232146;28;96675;-86
2022/11/21 16:46:31;;;;;;;9.27;2.92;;;;;;;12.64;100.00;100258.78;10252748;28;96704;-84
2022/11/21 16:51:34;;;;;;;14.02;3.22;;;;;;;12.65;100.00;100270.16;10215346;28;97335;-84
2022/11/21 16:56:39;;;;;;;10.63;3.08;;;;;;;12.56;100.00;100262.63;10212187;28;96590;-85
2022/11/21 17:01:42;;;;;;;8.30;2.75;;;;;;;12.48;100.00;100248.06;10211796;28;96809;-85
2022/11/21 17:06:47;;;;;;;9.27;2.95;;;;;;;12.55;100.00;100259.16;10212422;28;97348;-86
2022/11/21 17:11:52;;;;;;;11.15;2.83;;;;;;;12.52;100.00;100264.53;10211952;28;96707;-85
2022/11/21 17:16:55;;;;;;;12.85;3.30;;;;;;;12.49;100.00;100276.00;10212098;28;97160;-85
2022/11/21 17:22:00;;;;;;;11.80;3.08;;;;;;;12.44;100.00;100272.72;10211809;28;96893;-85
2022/11/21 17:27:04;;;;;;;14.75;2.83;;;;;;;12.44;100.00;100290.19;10212052;28;96869;-82
2022/11/21 17:32:08;;;;;;;14.77;3.28;;;;;;;12.41;100.00;100288.56;10210780;28;96830;-85
2022/11/21 17:37:11;;;;;;;11.60;3.13;;;;;;;12.35;100.00;100319.41;10211330;28;97003;-85
2022/11/21 17:42:16;;;;;;;12.75;3.35;;;;;;;12.31;100.00;100350.13;10237278;28;96771;-85
2022/11/21 17:47:19;;;;;;;13.40;3.00;;;;;;;12.27;100.00;100348.56;10250877;28;96826;-84
2022/11/21 17:52:22;;;;;;;9.88;2.65;;;;;;;12.22;100.00;100368.84;10263075;28;96713;-85
2022/11/21 17:57:27;;;;;;;11.93;3.22;;;;;;;12.23;100.00;100367.91;10263432;28;97118;-86
2022/11/21 18:02:30;;;;;;;11.50;2.20;;;;;;;12.18;100.00;100367.22;10264424;28;96644;-84
2022/11/21 18:07:34;;;;;;;10.10;2.00;;;;;;;12.06;100.00;100382.50;10264312;28;96740;-85
2022/11/21 18:12:39;;;;;;;7.18;2.13;;;;;;;11.95;100.00;100384.63;10263365;28;96776;-85
2022/11/21 18:17:42;;;;;;;7.85;2.25;;;;;;;11.90;100.00;100376.09;10264973;28;96722;-85
2022/11/21 18:22:47;;;;;;;7.30;1.92;;;;;;;11.85;100.00;100381.50;10263816;28;96771;-85
2022/11/21 18:27:52;;;;;;;11.32;2.17;;;;;;;11.71;100.00;100378.50;10263187;28;97293;-85
2022/11/21 18:32:56;;;;;;;9.43;1.83;;;;;;;11.59;100.00;100397.25;10261594;28;96845;-84
2022/11/21 18:37:59;;;;;;;10.65;2.63;;;;;;;11.45;100.00;100418.66;10264046;28;96756;-85
2022/11/21 18:43:04;;;;;;;5.07;2.28;;;;;;;11.17;100.00;100422.16;10263436;28;96858;-84
2022/11/21 18:48:08;;;;;;;8.48;2.42;;;;;;;10.91;100.00;100425.56;10245850;28;97216;-84
2022/11/21 18:53:11;;;;;;;6.20;2.00;;;;;;;10.83;100.00;100436.28;10240016;28;96779;-84
2022/11/21 18:58:16;;;;;;;8.55;2.17;;;;;;;10.82;100.00;100445.03;10262694;28;96959;-84
2022/11/21 19:03:20;;;;;;;6.57;2.33;;;;;;;10.85;100.00;100458.03;10254932;28;96684;-84
2022/11/21 19:08:23;;;;;;;9.63;3.13;;;;;;;10.78;100.00;100454.72;10216330;28;96810;-84
2022/11/21 19:13:28;;;;;;;12.95;3.20;;;;;;;10.88;100.00;100451.84;10215612;28;97084;-84
2022/11/21 19:18:32;;;;;;;;;;;;;;;10.77;100.00;100454.75;10216339;28;97508;-84
2022/11/21 19:23:43;;;;;;;9.23;3.05;;;;;;;10.90;100.00;100456.13;10215378;28;96718;-84
2022/11/21 19:28:48;;;;;;;8.45;3.08;;;;;;;10.87;100.00;100466.66;10214425;28;96945;-84
2022/11/21 19:33:51;;;;;;;10.80;3.15;;;;;;;10.65;100.00;100476.03;10214903;28;96659;-84
2022/11/21 19:38:55;;;;;;;9.13;3.78;;;;;;;10.48;100.00;100480.00;10223222;28;96839;-84
2022/11/21 19:44:01;;;;;;;10.52;4.07;;;;;;;10.27;100.00;100476.25;10255013;28;96784;-84
2022/11/21 19:49:05;;;;;;;11.13;4.30;;;;;;;10.28;100.00;100477.09;10254833;28;97044;-84
2022/11/21 19:54:11;;;;;;;13.90;7.00;;;;;;;10.18;100.00;100481.69;10253734;28;96988;-84
2022/11/21 19:59:16;;;;;;;13.18;6.60;;;;;;;10.35;100.00;100492.53;10214833;28;96951;-84
2022/11/21 20:04:19;;;;;;;12.80;4.80;;;;;;;10.64;100.00;100495.28;10214791;28;96829;-84
2022/11/21 20:09:23;;;;;;;13.50;4.38;;;;;;;10.84;100.00;100521.69;10213875;28;97226;-84
2022/11/21 20:14:27;;;;;;;9.55;3.85;;;;;;;10.85;100.00;100515.56;10212045;28;96911;-84
2022/11/21 20:19:31;;;;;;;13.98;3.80;;;;;;;10.92;100.00;100519.72;10213567;28;96756;-84
2022/11/21 20:24:34;;;;;;;10.50;3.13;;;;;;;10.87;100.00;100524.22;10213237;28;97183;-84
2022/11/21 20:29:46;;;;;;;12.18;3.63;;;;;;;10.94;100.00;100520.53;10213231;28;96924;-84
2022/11/21 20:34:49;;;;;;;14.32;3.38;;;;;;;10.96;100.00;100523.97;10213050;28;96732;-84
2022/11/21 20:39:52;;;;;;;13.88;3.70;;;;;;;11.09;100.00;100508.75;10236084;28;98074;-84
2022/11/21 20:44:57;;;;;;;11.50;3.53;;;;;;;11.09;100.00;100518.38;10252893;28;96688;-84
2022/11/21 20:50:20;;;;;;;10.73;4.27;;;;;;;10.99;100.00;100529.09;10212960;28;96913;-84
2022/11/21 20:55:43;;;;;;;7.88;3.17;;;;;;;11.01;100.00;100515.97;10212514;28;96813;-84
2022/11/21 21:00:48;;;;;;;12.95;2.92;;;;;;;10.80;100.00;100522.69;10212004;28;96760;-84
2022/11/21 21:05:54;;;;;;;17.83;4.15;;;;;;;10.81;100.00;100532.28;10211786;28;96729;-84
2022/11/21 21:11:02;;;;;;;14.20;4.10;;;;;;;10.78;100.00;100548.03;10211502;28;96840;-84
2022/11/21 21:16:12;;;;;;;12.55;4.05;;;;;;;10.73;100.00;100544.69;10211759;28;97013;-84
2022/11/21 21:21:18;;;;;;;11.88;4.07;;;;;;;10.67;100.00;100547.47;10212139;28;97105;-84
2022/11/21 21:26:23;;;;;;;10.63;3.75;;;;;;;10.60;100.00;100558.13;10210732;28;96653;-84
2022/11/21 21:31:29;;;;;;;16.13;4.22;;;;;;;10.50;100.00;100545.34;10210836;28;96830;-84
2022/11/21 21:36:32;;;;;;;15.57;3.92;;;;;;;10.43;100.00;100542.03;10211899;28;96918;-84
2022/11/21 21:41:38;;;;;;;13.82;4.20;;;;;;;10.38;100.00;100536.06;10249498;28;96775;-84
2022/11/21 21:46:43;;;;;;;15.15;4.57;;;;;;;10.36;100.00;100532.63;10251148;28;96812;-84
2022/11/21 21:51:46;;;;;;;13.10;4.13;;;;;;;10.31;100.00;100524.91;10250875;28;96902;-84
2022/11/21 21:56:50;;;;;;;17.17;4.05;;;;;;;10.23;100.00;100525.13;10219336;28;97643;-84
2022/11/21 22:01:54;;;;;;;19.38;4.50;;;;;;;10.14;100.00;100538.41;10210551;28;96920;-84
2022/11/21 22:06:59;;;;;;;17.45;4.03;;;;;;;10.06;100.00;100537.72;10210210;28;96704;-84
2022/11/21 22:12:02;;;;;;;12.77;4.17;;;;;;;10.01;100.00;100540.50;10210527;28;96871;-84
2022/11/21 22:17:07;;;;;;;14.93;4.22;;;;;;;10.02;100.00;100546.56;10210327;28;96661;-84
2022/11/21 22:22:10;;;;;;;10.43;4.20;;;;;;;10.01;100.00;100537.88;10210161;28;96625;-84
2022/11/21 22:27:13;;;;;;;12.50;3.60;;;;;;;9.98;100.00;100531.88;10210345;28;96912;-84
2022/11/21 22:32:17;;;;;;;15.18;4.03;;;;;;;9.93;100.00;100516.31;10210652;28;96813;-84
2022/11/21 22:37:22;;;;;;;11.90;3.55;;;;;;;9.92;100.00;100526.78;10224018;28;96778;-84
2022/11/21 22:42:26;;;;;;;12.10;4.03;;;;;;;9.84;100.00;100524.38;10256953;28;96786;-84
2022/11/21 22:47:31;;;;;;;15.10;3.90;;;;;;;9.77;100.00;100518.44;10228267;28;96815;-84
2022/11/21 22:52:34;;;;;;;16.27;4.38;;;;;;;9.75;100.00;100528.06;10216757;28;96812;-85
2022/11/21 22:57:37;;;;;;;16.73;4.25;;;;;;;9.69;100.00;100536.03;10215454;28;96844;-84
2022/11/21 23:02:42;;;;;;;17.73;4.47;;;;;;;9.66;100.00;100516.09;10216624;28;96523;-84
2022/11/21 23:07:45;;;;;;;12.63;3.80;;;;;;;9.69;100.00;100530.81;10215486;28;97142;-84
2022/11/21 23:12:49;;;;;;;12.75;4.07;;;;;;;9.66;100.00;100520.44;10215834;28;96832;-84
2022/11/21 23:17:53;;;;;;;13.73;4.43;;;;;;;9.70;100.00;100524.72;10215953;28;96678;-84
2022/11/21 23:22:57;;;;;;;12.40;4.25;;;;;;;9.75;100.00;100528.06;10216926;28;97067;-85
2022/11/21 23:28:00;;;;;;;16.30;4.28;;;;;;;9.81;100.00;100522.69;10214746;28;97003;-85
2022/11/21 23:33:05;;;;;;;15.07;4.18;;;;;;;9.84;100.00;100520.00;10215075;28;97421;-85
2022/11/21 23:38:08;;;;;;;19.25;4.60;;;;;;;9.86;100.00;100499.91;10214481;28;98141;-84